sensor_id;sensor_type;location;lat;lon;timestamp;pressure;altitude;pressure_sealevel;temperature;humidity
68226;BME280;55045;49.410;11.030;2023-03-05T00:00:21;98238.06;;;1.09;100.00
68226;BME280;55045;49.410;11.030;2023-03-05T00:03:24;98243.13;;;1.12;100.00
68226;BME280;55045;49.410;11.030;2023-03-05T00:06:30;98237.19;;;1.13;100.00
68226;BME280;55045;49.410;11.030;2023-03-05T00:09:33;98240.38;;;1.38;100.00
68226;BME280;55045;49.410;11.030;2023-03-05T00:12:37;98235.50;;;1.13;100.00
68226;BME280;55045;49.410;11.030;2023-03-05T00:15:40;98238.81;;;1.20;100.00
68226;BME280;55045;49.410;11.030;2023-03-05T00:18:44;98245.63;;;1.24;100.00
68226;BME280;55045;49.410;11.030;2023-03-05T00:21:48;98166.03;;;0.73;100.00
68226;BME280;55045;49.410;11.030;2023-03-05T00:24:51;98218.50;;;1.08;100.00
68226;BME280;55045;49.410;11.030;2023-03-05T00:27:55;98233.72;;;1.19;100.00
68226;BME280;55045;49.410;11.030;2023-03-05T00:30:58;98236.25;;;1.20;100.00
68226;BME280;55045;49.410;11.030;2023-03-05T00:34:05;98237.97;;;1.20;100.00
68226;BME280;55045;49.410;11.030;2023-03-05T00:37:10;98227.75;;;1.20;100.00
68226;BME280;55045;49.410;11.030;2023-03-05T00:40:13;98224.38;;;1.16;100.00
68226;BME280;55045;49.410;11.030;2023-03-05T00:43:17;98221.75;;;1.22;100.00
68226;BME280;55045;49.410;11.030;2023-03-05T00:46:20;98226.06;;;1.19;100.00
68226;BME280;55045;49.410;11.030;2023-03-05T00:49:24;98213.31;;;1.17;100.00
68226;BME280;55045;49.410;11.030;2023-03-05T00:52:28;98223.56;;;1.11;100.00
68226;BME280;55045;49.410;11.030;2023-03-05T00:55:31;98226.09;;;1.17;100.00
68226;BME280;55045;49.410;11.030;2023-03-05T00:58:37;98225.25;;;1.15;100.00
68226;BME280;55045;49.410;11.030;2023-03-05T01:01:40;98218.44;;;1.15;100.00
68226;BME280;55045;49.410;11.030;2023-03-05T01:04:43;98220.09;;;1.18;100.00
68226;BME280;55045;49.410;11.030;2023-03-05T01:07:53;98226.88;;;1.22;100.00
68226;BME280;55045;49.410;11.030;2023-03-05T01:10:57;98220.06;;;1.24;100.00
68226;BME280;55045;49.410;11.030;2023-03-05T01:14:02;98215.88;;;1.15;100.00
68226;BME280;55045;49.410;11.030;2023-03-05T01:17:05;98212.31;;;1.32;100.00
68226;BME280;55045;49.410;11.030;2023-03-05T01:20:11;98209.84;;;1.21;100.00
68226;BME280;55045;49.410;11.030;2023-03-05T01:23:16;98199.72;;;1.15;100.00
68226;BME280;55045;49.410;11.030;2023-03-05T01:26:20;98200.50;;;1.20;100.00
68226;BME280;55045;49.410;11.030;2023-03-05T01:29:23;98201.41;;;1.14;100.00
68226;BME280;55045;49.410;11.030;2023-03-05T01:32:26;98180.16;;;1.12;100.00
68226;BME280;55045;49.410;11.030;2023-03-05T01:35:31;98201.44;;;1.10;100.00
68226;BME280;55045;49.410;11.030;2023-03-05T01:38:36;98192.03;;;1.17;100.00
68226;BME280;55045;49.410;11.030;2023-03-05T01:41:39;98192.03;;;1.17;100.00
68226;BME280;55045;49.410;11.030;2023-03-05T01:44:58;98189.41;;;1.21;100.00
68226;BME280;55045;49.410;11.030;2023-03-05T01:48:02;98183.59;;;1.08;100.00
68226;BME280;55045;49.410;11.030;2023-03-05T01:51:06;98193.78;;;1.10;100.00
68226;BME280;55045;49.410;11.030;2023-03-05T01:54:13;98190.34;;;1.15;100.00
68226;BME280;55045;49.410;11.030;2023-03-05T01:57:20;98190.34;;;1.14;100.00
68226;BME280;55045;49.410;11.030;2023-03-05T02:00:26;98182.69;;;1.14;100.00
68226;BME280;55045;49.410;11.030;2023-03-05T02:03:32;98186.91;;;1.18;100.00
68226;BME280;55045;49.410;11.030;2023-03-05T02:06:36;98185.25;;;1.14;100.00
68226;BME280;55045;49.410;11.030;2023-03-05T02:09:41;98176.75;;;1.13;100.00
68226;BME280;55045;49.410;11.030;2023-03-05T02:12:45;98180.16;;;1.09;100.00
68226;BME280;55045;49.410;11.030;2023-03-05T02:15:50;98178.44;;;1.10;100.00
68226;BME280;55045;49.410;11.030;2023-03-05T02:18:55;98169.91;;;1.15;100.00
68226;BME280;55045;49.410;11.030;2023-03-05T02:22:00;98164.06;;;1.04;100.00
68226;BME280;55045;49.410;11.030;2023-03-05T02:25:12;98169.97;;;1.08;100.00
68226;BME280;55045;49.410;11.030;2023-03-05T02:28:19;98163.16;;;1.07;100.00
68226;BME280;55045;49.410;11.030;2023-03-05T02:31:24;98159.00;;;0.97;100.00
68226;BME280;55045;49.410;11.030;2023-03-05T02:34:28;98159.00;;;0.97;100.00
68226;BME280;55045;49.410;11.030;2023-03-05T02:37:33;98154.66;;;1.08;100.00
68226;BME280;55045;49.410;11.030;2023-03-05T02:40:36;98154.81;;;0.93;100.00
68226;BME280;55045;49.410;11.030;2023-03-05T02:43:40;98148.78;;;0.97;100.00
68226;BME280;55045;49.410;11.030;2023-03-05T02:46:43;98151.41;;;0.91;100.00
68226;BME280;55045;49.410;11.030;2023-03-05T02:49:46;98145.41;;;0.92;100.00
68226;BME280;55045;49.410;11.030;2023-03-05T02:52:51;98142.81;;;0.98;100.00
68226;BME280;55045;49.410;11.030;2023-03-05T02:55:55;98106.47;;;0.71;100.00
68226;BME280;55045;49.410;11.030;2023-03-05T02:58:58;98118.19;;;0.91;100.00
68226;BME280;55045;49.410;11.030;2023-03-05T03:02:01;98119.03;;;0.91;100.00
68226;BME280;55045;49.410;11.030;2023-03-05T03:05:05;98121.59;;;0.93;100.00
68226;BME280;55045;49.410;11.030;2023-03-05T03:08:10;98124.16;;;0.90;100.00
68226;BME280;55045;49.410;11.030;2023-03-05T03:11:13;98127.63;;;0.85;100.00
68226;BME280;55045;49.410;11.030;2023-03-05T03:14:16;98126.81;;;0.82;100.00
68226;BME280;55045;49.410;11.030;2023-03-05T03:17:20;98125.97;;;0.80;100.00
68226;BME280;55045;49.410;11.030;2023-03-05T03:20:24;98103.81;;;0.80;100.00
68226;BME280;55045;49.410;11.030;2023-03-05T03:23:29;98120.84;;;0.80;100.00
68226;BME280;55045;49.410;11.030;2023-03-05T03:26:32;98120.00;;;0.82;100.00
68226;BME280;55045;49.410;11.030;2023-03-05T03:29:36;98098.72;;;0.80;100.00
68226;BME280;55045;49.410;11.030;2023-03-05T03:32:39;98108.06;;;0.84;100.00
68226;BME280;55045;49.410;11.030;2023-03-05T03:35:43;98102.13;;;0.79;100.00
68226;BME280;55045;49.410;11.030;2023-03-05T03:38:48;98101.22;;;0.86;100.00
68226;BME280;55045;49.410;11.030;2023-03-05T03:41:52;98101.28;;;0.80;100.00
68226;BME280;55045;49.410;11.030;2023-03-05T03:44:55;98095.25;;;0.89;100.00
68226;BME280;55045;49.410;11.030;2023-03-05T03:47:59;98104.69;;;0.79;100.00
68226;BME280;55045;49.410;11.030;2023-03-05T03:51:06;98097.81;;;0.86;100.00
68226;BME280;55045;49.410;11.030;2023-03-05T03:54:11;98069.13;;;0.61;100.00
68226;BME280;55045;49.410;11.030;2023-03-05T03:57:15;98099.44;;;0.95;100.00
68226;BME280;55045;49.410;11.030;2023-03-05T04:00:18;98084.22;;;0.85;100.00
68226;BME280;55045;49.410;11.030;2023-03-05T04:03:22;98090.25;;;0.78;100.00
68226;BME280;55045;49.410;11.030;2023-03-05T04:06:25;98086.78;;;0.84;100.00
68226;BME280;55045;49.410;11.030;2023-03-05T04:09:30;98082.56;;;0.78;100.00
68226;BME280;55045;49.410;11.030;2023-03-05T04:12:33;98074.88;;;0.84;100.00
68226;BME280;55045;49.410;11.030;2023-03-05T04:15:36;98076.63;;;0.78;100.00
68226;BME280;55045;49.410;11.030;2023-03-05T04:18:40;98063.09;;;0.73;100.00
68226;BME280;55045;49.410;11.030;2023-03-05T04:21:43;98076.59;;;0.79;100.00
68226;BME280;55045;49.410;11.030;2023-03-05T04:24:48;98067.31;;;0.74;100.00
68226;BME280;55045;49.410;11.030;2023-03-05T04:27:51;98066.47;;;0.73;100.00
68226;BME280;55045;49.410;11.030;2023-03-05T04:34:22;98063.00;;;0.82;100.00
68226;BME280;55045;49.410;11.030;2023-03-05T04:37:25;98063.00;;;0.79;100.00
68226;BME280;55045;49.410;11.030;2023-03-05T04:40:29;98053.47;;;0.95;100.00
68226;BME280;55045;49.410;11.030;2023-03-05T04:43:32;98061.19;;;0.89;100.00
68226;BME280;55045;49.410;11.030;2023-03-05T04:46:35;98058.69;;;0.85;100.00
68226;BME280;55045;49.410;11.030;2023-03-05T04:49:40;98053.59;;;0.84;100.00
68226;BME280;55045;49.410;11.030;2023-03-05T04:52:44;98056.06;;;0.93;100.00
68226;BME280;55045;49.410;11.030;2023-03-05T04:55:51;98054.47;;;0.80;100.00
68226;BME280;55045;49.410;11.030;2023-03-05T04:58:55;98050.31;;;0.70;100.00
68226;BME280;55045;49.410;11.030;2023-03-05T05:01:58;98058.88;;;0.67;100.00
68226;BME280;55045;49.410;11.030;2023-03-05T05:05:03;98048.53;;;0.82;100.00
68226;BME280;55045;49.410;11.030;2023-03-05T05:08:06;98048.63;;;0.70;100.00
68226;BME280;55045;49.410;11.030;2023-03-05T05:11:12;98048.63;;;0.72;100.00
68226;BME280;55045;49.410;11.030;2023-03-05T05:14:16;98045.16;;;0.77;100.00
68226;BME280;55045;49.410;11.030;2023-03-05T05:17:20;98037.59;;;0.68;100.00
68226;BME280;55045;49.410;11.030;2023-03-05T05:20:27;97966.53;;;0.28;100.00
68226;BME280;55045;49.410;11.030;2023-03-05T05:23:31;98040.97;;;0.72;100.00
68226;BME280;55045;49.410;11.030;2023-03-05T05:26:34;98046.97;;;0.66;100.00
68226;BME280;55045;49.410;11.030;2023-03-05T05:29:37;98045.25;;;0.68;100.00
68226;BME280;55045;49.410;11.030;2023-03-05T05:32:40;98051.16;;;0.73;100.00
68226;BME280;55045;49.410;11.030;2023-03-05T05:35:45;98052.91;;;0.67;100.00
68226;BME280;55045;49.410;11.030;2023-03-05T05:38:49;98044.34;;;0.71;100.00
68226;BME280;55045;49.410;11.030;2023-03-05T05:41:52;98050.44;;;0.59;100.00
68226;BME280;55045;49.410;11.030;2023-03-05T05:44:55;98041.88;;;0.65;100.00
68226;BME280;55045;49.410;11.030;2023-03-05T05:47:59;98053.66;;;0.78;100.00
68226;BME280;55045;49.410;11.030;2023-03-05T05:51:06;98049.53;;;0.65;100.00
68226;BME280;55045;49.410;11.030;2023-03-05T05:54:11;98052.84;;;0.71;100.00
68226;BME280;55045;49.410;11.030;2023-03-05T05:57:14;98053.75;;;0.67;100.00
68226;BME280;55045;49.410;11.030;2023-03-05T06:00:18;98050.31;;;0.70;100.00
68226;BME280;55045;49.410;11.030;2023-03-05T06:03:21;98048.63;;;0.69;100.00
68226;BME280;55045;49.410;11.030;2023-03-05T06:06:27;98046.16;;;0.64;100.00
68226;BME280;55045;49.410;11.030;2023-03-05T06:09:31;98052.06;;;0.66;100.00
68226;BME280;55045;49.410;11.030;2023-03-05T06:12:34;98050.31;;;0.70;100.00
68226;BME280;55045;49.410;11.030;2023-03-05T06:15:37;98048.63;;;0.69;100.00
68226;BME280;55045;49.410;11.030;2023-03-05T06:18:41;98052.91;;;0.68;100.00
68226;BME280;55045;49.410;11.030;2023-03-05T06:21:45;98046.91;;;0.72;100.00
68226;BME280;55045;49.410;11.030;2023-03-05T06:24:49;98045.25;;;0.68;100.00
68226;BME280;55045;49.410;11.030;2023-03-05T06:27:52;98047.72;;;0.76;100.00
68226;BME280;55045;49.410;11.030;2023-03-05T06:30:59;98053.66;;;0.78;100.00
68226;BME280;55045;49.410;11.030;2023-03-05T06:34:03;98045.16;;;0.76;100.00
68226;BME280;55045;49.410;11.030;2023-03-05T06:37:08;98047.69;;;0.77;100.00
68226;BME280;55045;49.410;11.030;2023-03-05T06:40:12;98050.25;;;0.79;100.00
68226;BME280;55045;49.410;11.030;2023-03-05T06:43:15;98057.00;;;0.81;100.00
68226;BME280;55045;49.410;11.030;2023-03-05T06:46:20;98045.88;;;0.89;100.00
68226;BME280;55045;49.410;11.030;2023-03-05T06:49:23;98042.41;;;0.96;100.00
68226;BME280;55045;49.410;11.030;2023-03-05T06:52:28;98035.66;;;0.90;100.00
68226;BME280;55045;49.410;11.030;2023-03-05T06:55:35;98046.59;;;1.01;100.00
68226;BME280;55045;49.410;11.030;2023-03-05T06:58:40;98045.81;;;0.95;100.00
68226;BME280;55045;49.410;11.030;2023-03-05T07:01:44;98053.44;;;0.98;100.00
68226;BME280;55045;49.410;11.030;2023-03-05T07:04:47;98051.78;;;0.95;100.00
68226;BME280;55045;49.410;11.030;2023-03-05T07:07:51;98051.81;;;0.91;100.00
68226;BME280;55045;49.410;11.030;2023-03-05T07:10:55;98049.91;;;1.08;100.00
68226;BME280;55045;49.410;11.030;2023-03-05T07:13:59;98039.81;;;0.99;100.00
68226;BME280;55045;49.410;11.030;2023-03-05T07:17:02;98039.88;;;0.94;100.00
68226;BME280;55045;49.410;11.030;2023-03-05T07:20:07;98038.19;;;0.90;100.00
68226;BME280;55045;49.410;11.030;2023-03-05T07:23:12;98042.38;;;0.99;100.00
68226;BME280;55045;49.410;11.030;2023-03-05T07:26:15;98028.69;;;1.01;100.00
68226;BME280;55045;49.410;11.030;2023-03-05T07:29:18;98037.19;;;1.05;100.00
68226;BME280;55045;49.410;11.030;2023-03-05T07:32:21;98031.28;;;1.03;100.00
68226;BME280;55045;49.410;11.030;2023-03-05T07:35:25;98006.59;;;1.00;100.00
68226;BME280;55045;49.410;11.030;2023-03-05T07:38:30;98029.47;;;1.09;100.00
68226;BME280;55045;49.410;11.030;2023-03-05T07:41:33;98025.84;;;1.27;100.00
68226;BME280;55045;49.410;11.030;2023-03-05T07:44:36;98029.22;;;1.29;100.00
68226;BME280;55045;49.410;11.030;2023-03-05T07:47:40;98024.78;;;1.43;100.00
68226;BME280;55045;49.410;11.030;2023-03-05T07:50:43;98028.34;;;1.33;100.00
68226;BME280;55045;49.410;11.030;2023-03-05T07:53:49;98026.56;;;1.38;100.00
68226;BME280;55045;49.410;11.030;2023-03-05T07:56:53;98029.06;;;1.41;100.00
68226;BME280;55045;49.410;11.030;2023-03-05T07:59:56;98024.78;;;1.45;100.00
68226;BME280;55045;49.410;11.030;2023-03-05T08:02:59;98022.09;;;1.53;100.00
68226;BME280;55045;49.410;11.030;2023-03-05T08:06:04;98016.09;;;1.57;100.00
68226;BME280;55045;49.410;11.030;2023-03-05T08:09:08;97951.13;;;1.13;100.00
68226;BME280;55045;49.410;11.030;2023-03-05T08:12:12;98020.28;;;1.61;100.00
68226;BME280;55045;49.410;11.030;2023-03-05T08:15:15;98018.28;;;1.81;100.00
68226;BME280;55045;49.410;11.030;2023-03-05T08:18:18;98017.50;;;1.78;100.00
68226;BME280;55045;49.410;11.030;2023-03-05T08:21:26;98015.16;;;1.64;100.00
68226;BME280;55045;49.410;11.030;2023-03-05T08:24:31;98015.78;;;1.78;100.00
68226;BME280;55045;49.410;11.030;2023-03-05T08:27:37;98014.72;;;1.91;100.00
68226;BME280;55045;49.410;11.030;2023-03-05T08:30:40;98002.09;;;1.81;100.00
68226;BME280;55045;49.410;11.030;2023-03-05T08:33:44;98000.19;;;1.93;100.00
68226;BME280;55045;49.410;11.030;2023-03-05T08:36:47;98007.78;;;1.99;100.00
68226;BME280;55045;49.410;11.030;2023-03-05T08:39:52;98005.09;;;2.07;100.00
68226;BME280;55045;49.410;11.030;2023-03-05T08:42:57;98002.56;;;2.06;100.00
68226;BME280;55045;49.410;11.030;2023-03-05T08:46:02;97990.72;;;2.00;100.00
68226;BME280;55045;49.410;11.030;2023-03-05T08:49:05;98006.97;;;1.97;100.00
68226;BME280;55045;49.410;11.030;2023-03-05T08:52:09;98000.00;;;2.04;100.00
68226;BME280;55045;49.410;11.030;2023-03-05T08:55:14;98003.72;;;1.86;100.00
68226;BME280;55045;49.410;11.030;2023-03-05T08:58:17;97993.41;;;1.91;100.00
68226;BME280;55045;49.410;11.030;2023-03-05T09:01:21;97994.38;;;1.85;100.00
68226;BME280;55045;49.410;11.030;2023-03-05T09:04:24;97993.38;;;1.92;100.00
68226;BME280;55045;49.410;11.030;2023-03-05T09:07:28;97990.72;;;2.00;100.00
68226;BME280;55045;49.410;11.030;2023-03-05T09:10:33;97992.13;;;2.18;100.00
68226;BME280;55045;49.410;11.030;2023-03-05T09:13:36;97991.56;;;2.00;100.00
68226;BME280;55045;49.410;11.030;2023-03-05T09:16:39;97990.81;;;1.92;100.00
68226;BME280;55045;49.410;11.030;2023-03-05T09:19:42;97979.72;;;1.93;100.00
68226;BME280;55045;49.410;11.030;2023-03-05T09:22:46;97978.69;;;2.05;100.00
68226;BME280;55045;49.410;11.030;2023-03-05T09:25:50;97971.59;;;2.21;100.00
68226;BME280;55045;49.410;11.030;2023-03-05T09:28:54;97973.50;;;2.10;100.00
68226;BME280;55045;49.410;11.030;2023-03-05T09:31:57;97972.63;;;2.11;100.00
68226;BME280;55045;49.410;11.030;2023-03-05T09:35:00;97972.81;;;2.00;100.00
68226;BME280;55045;49.410;11.030;2023-03-05T09:38:03;97971.97;;;1.99;100.00
68226;BME280;55045;49.410;11.030;2023-03-05T09:41:15;97969.53;;;1.92;100.00
68226;BME280;55045;49.410;11.030;2023-03-05T09:44:24;97973.44;;;2.13;100.00
68226;BME280;55045;49.410;11.030;2023-03-05T09:47:43;97972.16;;;1.87;100.00
68226;BME280;55045;49.410;11.030;2023-03-05T09:50:50;97964.69;;;1.75;100.00
68226;BME280;55045;49.410;11.030;2023-03-05T09:53:59;97968.78;;;1.85;100.00
68226;BME280;55045;49.410;11.030;2023-03-05T09:57:12;97965.38;;;1.86;100.00
68226;BME280;55045;49.410;11.030;2023-03-05T10:00:27;97969.81;;;1.73;100.00
68226;BME280;55045;49.410;11.030;2023-03-05T10:03:43;97970.81;;;1.65;100.00
68226;BME280;55045;49.410;11.030;2023-03-05T10:06:52;97971.66;;;1.65;100.00
68226;BME280;55045;49.410;11.030;2023-03-05T10:09:58;97970.94;;;1.56;100.00
68226;BME280;55045;49.410;11.030;2023-03-05T10:13:07;97965.59;;;1.71;100.00
68226;BME280;55045;49.410;11.030;2023-03-05T10:16:33;97965.59;;;1.71;100.00
68226;BME280;55045;49.410;11.030;2023-03-05T10:23:22;97959.66;;;1.69;100.00
68226;BME280;55045;49.410;11.030;2023-03-05T10:26:51;97949.56;;;1.60;100.00
68226;BME280;55045;49.410;11.030;2023-03-05T10:30:12;97956.44;;;1.58;100.00
68226;BME280;55045;49.410;11.030;2023-03-05T10:34:40;97943.38;;;1.76;100.00
68226;BME280;55045;49.410;11.030;2023-03-05T10:38:03;97940.00;;;1.72;100.00
68226;BME280;55045;49.410;11.030;2023-03-05T10:41:16;97937.22;;;1.86;100.00
68226;BME280;55045;49.410;11.030;2023-03-05T10:44:30;97936.63;;;1.70;100.00
68226;BME280;55045;49.410;11.030;2023-03-05T10:47:41;97931.31;;;1.84;100.00
68226;BME280;55045;49.410;11.030;2023-03-05T10:50:51;97936.09;;;2.02;100.00
68226;BME280;55045;49.410;11.030;2023-03-05T10:53:57;97929.59;;;2.33;100.00
68226;BME280;55045;49.410;11.030;2023-03-05T10:57:09;97918.13;;;2.07;100.00
68226;BME280;55045;49.410;11.030;2023-03-05T11:00:17;97920.84;;;1.98;100.00
68226;BME280;55045;49.410;11.030;2023-03-05T11:03:22;97920.91;;;1.95;100.00
68226;BME280;55045;49.410;11.030;2023-03-05T11:06:32;97916.59;;;1.97;100.00
68226;BME280;55045;49.410;11.030;2023-03-05T11:09:36;97906.03;;;2.15;100.00
68226;BME280;55045;49.410;11.030;2023-03-05T11:12:39;97900.97;;;2.12;100.00
68226;BME280;55045;49.410;11.030;2023-03-05T11:15:42;97897.38;;;2.22;100.00
68226;BME280;55045;49.410;11.030;2023-03-05T11:18:45;97896.50;;;2.25;100.00
68226;BME280;55045;49.410;11.030;2023-03-05T11:22:07;97888.59;;;2.36;100.00
68226;BME280;55045;49.410;11.030;2023-03-05T11:25:16;97886.91;;;2.78;100.00
68226;BME280;55045;49.410;11.030;2023-03-05T11:28:24;97883.03;;;2.58;100.00
68226;BME280;55045;49.410;11.030;2023-03-05T11:31:34;97883.09;;;2.55;100.00
68226;BME280;55045;49.410;11.030;2023-03-05T11:34:40;97878.44;;;2.31;100.00
68226;BME280;55045;49.410;11.030;2023-03-05T11:37:58;97866.31;;;2.41;100.00
68226;BME280;55045;49.410;11.030;2023-03-05T11:41:02;97872.88;;;2.54;100.00
68226;BME280;55045;49.410;11.030;2023-03-05T11:44:10;97875.31;;;2.60;100.00
68226;BME280;55045;49.410;11.030;2023-03-05T11:47:23;97869.47;;;2.53;100.00
68226;BME280;55045;49.410;11.030;2023-03-05T11:50:30;97840.16;;;2.68;100.00
68226;BME280;55045;49.410;11.030;2023-03-05T11:53:35;97869.38;;;2.58;100.00
68226;BME280;55045;49.410;11.030;2023-03-05T11:56:41;97852.72;;;2.39;100.00
68226;BME280;55045;49.410;11.030;2023-03-05T11:59:46;97859.50;;;2.81;100.00
68226;BME280;55045;49.410;11.030;2023-03-05T12:02:52;97860.25;;;2.46;100.00
68226;BME280;55045;49.410;11.030;2023-03-05T12:05:59;97852.41;;;2.52;100.00
68226;BME280;55045;49.410;11.030;2023-03-05T12:09:08;97843.06;;;2.51;100.00
68226;BME280;55045;49.410;11.030;2023-03-05T12:12:24;97840.97;;;2.28;100.00
68226;BME280;55045;49.410;11.030;2023-03-05T12:15:39;97840.91;;;2.31;100.00
68226;BME280;55045;49.410;11.030;2023-03-05T12:18:55;97836.59;;;2.35;100.00
68226;BME280;55045;49.410;11.030;2023-03-05T12:22:00;97826.97;;;2.46;100.00
68226;BME280;55045;49.410;11.030;2023-03-05T12:25:25;97820.34;;;2.36;100.00
68226;BME280;55045;49.410;11.030;2023-03-05T12:28:52;97815.84;;;2.86;100.00
68226;BME280;55045;49.410;11.030;2023-03-05T12:31:56;97808.72;;;2.62;100.00
68226;BME280;55045;49.410;11.030;2023-03-05T12:35:00;97807.97;;;2.56;100.00
68226;BME280;55045;49.410;11.030;2023-03-05T12:38:29;97800.34;;;2.53;100.00
68226;BME280;55045;49.410;11.030;2023-03-05T12:41:34;97798.72;;;2.49;100.00
68226;BME280;55045;49.410;11.030;2023-03-05T12:44:38;97794.19;;;2.62;100.00
68226;BME280;55045;49.410;11.030;2023-03-05T12:47:42;97792.63;;;2.56;100.00
68226;BME280;55045;49.410;11.030;2023-03-05T12:50:47;97783.31;;;2.52;100.00
68226;BME280;55045;49.410;11.030;2023-03-05T12:53:50;97780.50;;;2.63;100.00
68226;BME280;55045;49.410;11.030;2023-03-05T12:56:56;97760.75;;;2.70;100.00
68226;BME280;55045;49.410;11.030;2023-03-05T13:00:02;97784.03;;;2.59;100.00
68226;BME280;55045;49.410;11.030;2023-03-05T13:03:13;97773.03;;;2.55;100.00
68226;BME280;55045;49.410;11.030;2023-03-05T13:06:27;97777.22;;;2.58;100.00
68226;BME280;55045;49.410;11.030;2023-03-05T13:09:32;97777.53;;;2.43;100.00
68226;BME280;55045;49.410;11.030;2023-03-05T13:12:38;97782.53;;;2.49;100.00
68226;BME280;55045;49.410;11.030;2023-03-05T13:15:44;97771.41;;;2.50;100.00
68226;BME280;55045;49.410;11.030;2023-03-05T13:18:49;97766.00;;;2.64;100.00
68226;BME280;55045;49.410;11.030;2023-03-05T13:22:03;97773.31;;;2.40;100.00
68226;BME280;55045;49.410;11.030;2023-03-05T13:25:15;97758.75;;;2.44;100.00
68226;BME280;55045;49.410;11.030;2023-03-05T13:28:22;97762.81;;;2.52;100.00
68226;BME280;55045;49.410;11.030;2023-03-05T13:31:26;97763.22;;;2.34;100.00
68226;BME280;55045;49.410;11.030;2023-03-05T13:34:31;97758.78;;;2.42;100.00
68226;BME280;55045;49.410;11.030;2023-03-05T13:37:48;97760.84;;;2.26;100.00
68226;BME280;55045;49.410;11.030;2023-03-05T13:41:07;97753.19;;;2.25;100.00
68226;BME280;55045;49.410;11.030;2023-03-05T13:44:25;97746.19;;;2.33;100.00
68226;BME280;55045;49.410;11.030;2023-03-05T13:47:32;97750.91;;;2.51;100.00
68226;BME280;55045;49.410;11.030;2023-03-05T13:50:38;97749.41;;;2.41;100.00
68226;BME280;55045;49.410;11.030;2023-03-05T13:53:42;97674.81;;;1.81;100.00
68226;BME280;55045;49.410;11.030;2023-03-05T13:56:50;97728.69;;;2.15;100.00
68226;BME280;55045;49.410;11.030;2023-03-05T13:59:55;97733.94;;;2.47;100.00
68226;BME280;55045;49.410;11.030;2023-03-05T14:03:06;97729.34;;;2.23;100.00
68226;BME280;55045;49.410;11.030;2023-03-05T14:06:14;97728.22;;;2.36;100.00
68226;BME280;55045;49.410;11.030;2023-03-05T14:09:22;97731.38;;;2.47;100.00
68226;BME280;55045;49.410;11.030;2023-03-05T14:12:29;97712.81;;;2.38;100.00
68226;BME280;55045;49.410;11.030;2023-03-05T14:15:36;97716.75;;;2.52;100.00
68226;BME280;55045;49.410;11.030;2023-03-05T14:18:52;97714.59;;;2.36;100.00
68226;BME280;55045;49.410;11.030;2023-03-05T14:21:56;97708.50;;;2.40;100.00
68226;BME280;55045;49.410;11.030;2023-03-05T14:24:59;97713.13;;;2.22;100.00
68226;BME280;55045;49.410;11.030;2023-03-05T14:28:04;97708.53;;;2.38;100.00
68226;BME280;55045;49.410;11.030;2023-03-05T14:31:14;97698.44;;;2.32;100.00
68226;BME280;55045;49.410;11.030;2023-03-05T14:34:22;97698.59;;;2.26;100.00
68226;BME280;55045;49.410;11.030;2023-03-05T14:37:33;97669.00;;;2.13;100.00
68226;BME280;55045;49.410;11.030;2023-03-05T14:40:37;97694.13;;;2.34;100.00
68226;BME280;55045;49.410;11.030;2023-03-05T14:43:40;97683.03;;;2.35;100.00
68226;BME280;55045;49.410;11.030;2023-03-05T14:46:48;97688.84;;;2.42;100.00
68226;BME280;55045;49.410;11.030;2023-03-05T14:49:51;97683.78;;;2.39;100.00
68226;BME280;55045;49.410;11.030;2023-03-05T14:52:56;97682.13;;;2.38;100.00
68226;BME280;55045;49.410;11.030;2023-03-05T14:56:01;97674.69;;;2.27;100.00
68226;BME280;55045;49.410;11.030;2023-03-05T14:59:04;97684.00;;;2.29;100.00
68226;BME280;55045;49.410;11.030;2023-03-05T15:02:13;97677.34;;;2.21;100.00
68226;BME280;55045;49.410;11.030;2023-03-05T15:05:18;97674.81;;;2.21;100.00
68226;BME280;55045;49.410;11.030;2023-03-05T15:08:24;97664.50;;;2.24;100.00
68226;BME280;55045;49.410;11.030;2023-03-05T15:16:17;97650.94;;;2.20;100.00
68226;BME280;55045;49.410;11.030;2023-03-05T15:19:22;97638.19;;;2.19;100.00
68226;BME280;55045;49.410;11.030;2023-03-05T15:22:29;97639.09;;;2.16;100.00
68226;BME280;55045;49.410;11.030;2023-03-05T15:25:32;97637.31;;;2.20;100.00
68226;BME280;55045;49.410;11.030;2023-03-05T15:28:37;97637.38;;;2.17;100.00
68226;BME280;55045;49.410;11.030;2023-03-05T15:31:40;97635.75;;;2.13;100.00
68226;BME280;55045;49.410;11.030;2023-03-05T15:34:45;97626.34;;;2.15;100.00
68226;BME280;55045;49.410;11.030;2023-03-05T15:37:48;97625.66;;;2.07;100.00
68226;BME280;55045;49.410;11.030;2023-03-05T15:40:52;97622.31;;;2.05;100.00
68226;BME280;55045;49.410;11.030;2023-03-05T15:43:55;97609.66;;;1.98;100.00
68226;BME280;55045;49.410;11.030;2023-03-05T15:46:58;97607.94;;;1.99;100.00
68226;BME280;55045;49.410;11.030;2023-03-05T15:50:04;97604.41;;;2.05;100.00
68226;BME280;55045;49.410;11.030;2023-03-05T15:53:07;97612.63;;;2.17;100.00
68226;BME280;55045;49.410;11.030;2023-03-05T15:56:14;97600.97;;;2.06;100.00
68226;BME280;55045;49.410;11.030;2023-03-05T15:59:18;97605.25;;;2.05;100.00
68226;BME280;55045;49.410;11.030;2023-03-05T16:02:21;97595.81;;;2.07;100.00
68226;BME280;55045;49.410;11.030;2023-03-05T16:05:27;97600.13;;;2.03;100.00
68226;BME280;55045;49.410;11.030;2023-03-05T16:08:32;97600.19;;;2.02;100.00
68226;BME280;55045;49.410;11.030;2023-03-05T16:11:39;97596.06;;;1.96;100.00
68226;BME280;55045;49.410;11.030;2023-03-05T16:14:49;97589.22;;;1.97;100.00
68226;BME280;55045;49.410;11.030;2023-03-05T16:17:53;97586.00;;;1.89;100.00
68226;BME280;55045;49.410;11.030;2023-03-05T16:20:59;97584.94;;;1.97;100.00
68226;BME280;55045;49.410;11.030;2023-03-05T16:24:03;97581.59;;;1.94;100.00